Notice: wpdb::prepare was called incorrectly. The query does not contain the correct number of placeholders (2) for the number of arguments passed (3). Please see Debugging in WordPress for more information. (This message was added in version 4.8.3.) in C:\Inetpub\vhosts\amd.gov.af\httpdocs\wp-includes\functions.php on line 5313
Aviation – Afghanistan Meteorological Department

Aviation

GMT = (Local) OAKB METAR Report
00 = 4:30 METAR OAKB 242350Z 30003KT CAVOK 12/M00 Q1014 RMK A2994 BLU BLU =BY KHUSHBIN
01 = 5:30 METAR OAKB 250050Z 14004KT CAVOK 13/00 Q1015 RMK A2997 BLU BLU =BY KHUSHBIN
02 = 6:30  METAR OAKB 25150Z 00000KT 6000 HZ 14/02 Q1015 RMK A2997 BLU BLU =BY KHUSHBIN
03 = 7:30 METAR OAKB 250250Z 27002KT 7000 NSC 17/01 Q1016 RMK A3000 WHT WHT =BY KHUSHBIN
04= 8 :30 METAR OAKB 250350Z 28002KT 9000 NSC 21/M02 Q1016 RMK A3000 BLU BLU =BY BASAM
05 = 9:30 METAR OAKB 250450Z 17003KT CAVOK 23/M05 Q1016 RMK A3000 BLU BLU =BY SAMANDAR
06 = 10 :30  METAR OAKB 250550Z 15003KT CAVOK 25/M06 Q1015 RMK A2997 BLU BLU =BY SAMANDAR
07 = 11:30 METAR OAKB 250650Z 32009KT CAVOK 26/M10 Q1015 RMK A2997 BLU BLU =BY MURTAZA
08 = 12:30 METAR OAKB 250750Z 33008G23KT CAVOK 27/M10 Q1014 RMK A2994 BLU BLU =BY SAMANDAR
09=13:30
10=14 : 30
11=15:30
12=16:30
13=17:30
GMT = (Local) OAMS METAR Report
00 = 4:30
01 = 5:30
02 = 6:30
03 = 7:30 METAR OAMS 25 0315 VRB03KT CAVOK 22/M06 Q1011 RMK A2986 =BY QARIZADA
04= 8 : 30 METAR OAMS 25 0350Z VRB03KT CAVOK 24/M06 Q1011 RMK A2986 =BY QARIZADA
05 = 9:30 METAR OAMS 250450Z VRB04KT CAVOK 26/M06 Q1012 RMK A2987 =BY SULTANI
06 = 10:30 METAR OAMS 25 0550Z VRB04KT CAVOK 28/M05 Q1012 RMK A2987 =BY QARIZADA
07 = 11:30 METAR OAMS 250650Z VRB03KT CAVOK 30/M07 Q1011 RMK A2986 =BY SULTANI
08= 12 :30 METAR OAMS 25 0750Z 28005KT CAVOK 31/M06 Q1011 RMK A2984 =BY QARIZADA
09 = 13:30
10 = 14:30
11 = 15:30
12 = 16:30
13 = 17:30
14 = 18:30
15 = 19:30
16 = 20:30
17 = 21:30
18 = 22:30
19 = 23:30
20 = 24:30
21 = 1:30
22 = 2:30
23 = 3:30
GMT = (Local) OAHR METAR Report
00 = 4:30
01=5:30
02=6:30
03=7:30 METAR OAHR 250255Z 12006KT CAVOK 18/M12 Q1016 RMK A3001 BLU=
04=8:30 METAR OAHR 250355Z 08005KT CAVOK 21/M12 Q1016 RMK A3002 BLU=
05=9:30 METAR OAHR 250455Z 03006KT CAVOK 23/M10 Q1016 RMK A3002 BLU=
06=10:30 METAR OAHR 250555Z 35004KT CAVOK 25/M09 Q1016 RMK A3002 BLU=
07=11:30 METAR OAHR 250655Z 29005KT CAVOK 26/M09 Q1016 RMK A3000 BLU=
08=12:30 METAR OAHR 250755Z 28008KT CAVOK 28/M09 Q1015 RMK A2998 BLU =
09=13:30
10=14:30
11=15:30
12=16:30
GMT = (Local) OAKN METAR Report
00 = 4:30
01 = 5:30
02 = 6:30
03=7 :30
04 = 8:30
05 = 9:30
06=10:30  METAR OAKN 250550Z 28004KT CAVOK 26/M14 Q1009 RMK A2982 BLU BLU = BY
07=11: 30 METAR OAKN 250650Z 00000KT CAVOK 28/M11 Q1009 RMK A2982 BLU BLU = BY
08=12:30 METAR OAKN 250750Z 28002KT CAVOK 30/M11 Q1008 RMK A2978 BLU BLU = BY
09= 13 :30
10=14:30
11= 15 :30
12=16: 30